Nyk Constellation — V7NP4 — position and weather

sailwx.info

Track history (hours):
 
Tides and Currents Weather Stations Pressure Air Temp Water Temp Dewpoint Dewpoint Depression Visibility Wind Speed Wind Dir Waves Ship Positions

Nyk Constellation

Last reported at 2014-Oct-28 09:14 UTC. Time now 2014-Oct-31 08:30 UTC.
Position N 35°13' E 139°46'.

Length 294 m; draft 10.9 m.

Type: Cargo ship. MMSI: 538002992.

Date/timePositionNaut miles runAvg speedWind from/ knotsBaromVisibWave heightAir tempDewpointWater temp
2014-Oct-28 09:14N 35°13' E 139°46'912.5
2014-Oct-28 08:33N 35°21' E 139°42'1413.6
2014-Oct-28 07:33N 35°34' E 139°49'3 3.1
2014-Oct-28 06:28N 35°36' E 139°46'0 0.0
2014-Oct-28 05:31N 35°36' E 139°46'0 0.0
2014-Oct-28 02:25N 35°36' E 139°46'0 0.0
2014-Oct-27 23:31N 35°36' E 139°46'2 2.3
2014-Oct-27 22:34N 35°34' E 139°48'1110.7
2014-Oct-27 21:33N 35°24' E 139°46'1211.8
2014-Oct-27 20:33N 35°12' E 139°47'9 9.1
2014-Oct-27 19:32N 35°04' E 139°42'245 7.7
2014-Oct-26 11:33N 33°52' E 134°58'1717.6
2014-Oct-26 10:33N 34°09' E 134°58'1313.3
2014-Oct-26 09:33N 34°23' E 135°00'1717.3
2014-Oct-26 08:33N 34°36' E 135°13'6 5.7
2014-Oct-26 07:33N 34°41' E 135°17'0 0.0
2014-Oct-26 06:33N 34°41' E 135°17'0 0.0
2014-Oct-26 05:33N 34°41' E 135°17'0 0.0
2014-Oct-26 04:27N 34°41' E 135°17'0 0.0
2014-Oct-26 03:33N 34°41' E 135°17'0 0.0
2014-Oct-26 02:33N 34°41' E 135°17'0 0.0
2014-Oct-26 01:27N 34°41' E 135°17'0 0.0
2014-Oct-26 00:27N 34°41' E 135°17'0 0.0
2014-Oct-25 23:33N 34°41' E 135°17'0 0.3
2014-Oct-25 22:33N 34°41' E 135°18'1110.8
2014-Oct-25 21:33N 34°31' E 135°12'1717.3
2014-Oct-25 20:33N 34°17' E 134°59'1111.3
2014-Oct-25 19:33N 34°06' E 134°59'7 6.9
2014-Oct-25 18:33N 33°59' E 134°58'  
2014-Oct-21 06:31N 35°13' E 139°46'1111.0
2014-Oct-21 05:33N 35°23' E 139°42'4 4.2
2014-Oct-21 04:31N 35°28' E 139°42'0 0.0
2014-Oct-21 03:31N 35°28' E 139°42'0 0.0
2014-Oct-21 02:31N 35°28' E 139°42'0 0.0
2014-Oct-21 01:28N 35°28' E 139°42'0 0.0
2014-Oct-21 00:31N 35°28' E 139°42'0 0.0
2014-Oct-20 23:31N 35°28' E 139°42'0 0.0
2014-Oct-20 22:31N 35°28' E 139°42'0 0.0
2014-Oct-20 21:31N 35°28' E 139°42'0 0.0
2014-Oct-20 20:31N 35°28' E 139°42'0 0.0
2014-Oct-20 19:31N 35°28' E 139°42'0 0.0
2014-Oct-20 18:31N 35°28' E 139°42'0 0.0
2014-Oct-20 17:28N 35°28' E 139°42'0 0.0
2014-Oct-20 16:31N 35°28' E 139°42'0 0.0
2014-Oct-20 15:31N 35°28' E 139°42'0 0.0
2014-Oct-20 14:33N 35°28' E 139°42'3 3.1
2014-Oct-20 13:33N 35°26' E 139°45'8 7.9
2014-Oct-20 12:33N 35°18' E 139°44'9 9.3
2014-Oct-20 11:33N 35°09' E 139°47'8 8.2
2014-Oct-20 10:33N 35°01' E 139°44'  
Track history (hours):
 
Tides and Currents Weather Stations Pressure Air Temp Water Temp Dewpoint Dewpoint Depression Visibility Wind Speed Wind Dir Waves Ship Positions

Nyk Constellation

Last reported at 2014-Oct-28 09:14 UTC. Time now 2014-Oct-31 08:30 UTC.
Position N 35°13' E 139°46'.

Length 294 m; draft 10.9 m.

Type: Cargo ship. MMSI: 538002992.

Date/timePositionNaut miles runAvg speedWind from/ knotsBaromVisibWave heightAir tempDewpointWater temp
2014-Oct-28 09:14N 35°13' E 139°46'912.5
2014-Oct-28 08:33N 35°21' E 139°42'1413.6
2014-Oct-28 07:33N 35°34' E 139°49'3 3.1
2014-Oct-28 06:28N 35°36' E 139°46'0 0.0
2014-Oct-28 05:31N 35°36' E 139°46'0 0.0
2014-Oct-28 02:25N 35°36' E 139°46'0 0.0
2014-Oct-27 23:31N 35°36' E 139°46'2 2.3
2014-Oct-27 22:34N 35°34' E 139°48'1110.7
2014-Oct-27 21:33N 35°24' E 139°46'1211.8
2014-Oct-27 20:33N 35°12' E 139°47'9 9.1
2014-Oct-27 19:32N 35°04' E 139°42'245 7.7
2014-Oct-26 11:33N 33°52' E 134°58'1717.6
2014-Oct-26 10:33N 34°09' E 134°58'1313.3
2014-Oct-26 09:33N 34°23' E 135°00'1717.3
2014-Oct-26 08:33N 34°36' E 135°13'6 5.7
2014-Oct-26 07:33N 34°41' E 135°17'0 0.0
2014-Oct-26 06:33N 34°41' E 135°17'0 0.0
2014-Oct-26 05:33N 34°41' E 135°17'0 0.0
2014-Oct-26 04:27N 34°41' E 135°17'0 0.0
2014-Oct-26 03:33N 34°41' E 135°17'0 0.0
2014-Oct-26 02:33N 34°41' E 135°17'0 0.0
2014-Oct-26 01:27N 34°41' E 135°17'0 0.0
2014-Oct-26 00:27N 34°41' E 135°17'0 0.0
2014-Oct-25 23:33N 34°41' E 135°17'0 0.3
2014-Oct-25 22:33N 34°41' E 135°18'1110.8
2014-Oct-25 21:33N 34°31' E 135°12'1717.3
2014-Oct-25 20:33N 34°17' E 134°59'1111.3
2014-Oct-25 19:33N 34°06' E 134°59'7 6.9
2014-Oct-25 18:33N 33°59' E 134°58'  
2014-Oct-21 06:31N 35°13' E 139°46'1111.0
2014-Oct-21 05:33N 35°23' E 139°42'4 4.2
2014-Oct-21 04:31N 35°28' E 139°42'0 0.0
2014-Oct-21 03:31N 35°28' E 139°42'0 0.0
2014-Oct-21 02:31N 35°28' E 139°42'0 0.0
2014-Oct-21 01:28N 35°28' E 139°42'0 0.0
2014-Oct-21 00:31N 35°28' E 139°42'0 0.0
2014-Oct-20 23:31N 35°28' E 139°42'0 0.0
2014-Oct-20 22:31N 35°28' E 139°42'0 0.0
2014-Oct-20 21:31N 35°28' E 139°42'0 0.0
2014-Oct-20 20:31N 35°28' E 139°42'0 0.0
2014-Oct-20 19:31N 35°28' E 139°42'0 0.0
2014-Oct-20 18:31N 35°28' E 139°42'0 0.0
2014-Oct-20 17:28N 35°28' E 139°42'0 0.0
2014-Oct-20 16:31N 35°28' E 139°42'0 0.0
2014-Oct-20 15:31N 35°28' E 139°42'0 0.0
2014-Oct-20 14:33N 35°28' E 139°42'3 3.1
2014-Oct-20 13:33N 35°26' E 139°45'8 7.9
2014-Oct-20 12:33N 35°18' E 139°44'9 9.3
2014-Oct-20 11:33N 35°09' E 139°47'8 8.2
2014-Oct-20 10:33N 35°01' E 139°44'  

Dump ship's entire track history